Woodland, Georgia
Current Conditions -  °F | °C
As of 5:55 PM on Thursday 18 Dec 2014 (Local Time) from KOPN Reporting Station
Overcast Overcast  
Wind Chill: 55°   Ceiling: 5000
Heat Index: 55°   Visibility: 10mi
Dew Point: 32°   Wind: 3mph
Humidity: 41%   Direction: 340°NNW
Pressure: 30.12"   Gusts: NA
Location:  32.79°N, 84.56°W
Report Text: KOPN 182255Z AUTO 34003KT 10SM OVC050 13/00 A3012 RMK AO2
Loading
Personal Weather Stations






























Interactive Weather Map New forecast layout! Learn more

10-Day Weather Forecast

Advertisements
Track Severe Weather on mobile